Weather at Mcdonald's Farm Airport [CLOSED]

Public forecast

Using degrees Celsius for public forecast. Weather courtesy of forecast.io.

Closest aviation weather report (METAR) to Mcdonald's Farm Airport

Closest report is Lethbridge County Airport, 43.2 nm (80.0 km) SSE.

2024/05/21 14:00 (retrieved 29 minutes ago)

CYQL 211400Z 19006KT 60SM FEW050 SCT095 BKN270 07/05 A2988 RMK SC1AC3CI3 SC TR SLP136

Closest aviation forecast (TAF) to Mcdonald's Farm Airport

Closest forecast is Lethbridge County Airport, 43.2 nm (80.0 km) SSE.

2024/05/21 12:42 (retrieved 2 hours ago)

TAF CYQL 211140Z 2112/2124 22005KT P6SM FEW012 BKN050 TEMPO 2112/2115 SCT050 FM211500 27008KT P6SM FEW030 SCT120 FM211800 28012KT P6SM BKN100 FM212000 24012G22KT P6SM BKN100 TEMPO 2120/2124 VRB18G28KT P6SM -SHRA VCTS BKN080CB RMK FCST BASED ON AUTO OBS NXT FCST BY 211800Z